This is the latest recevied weather packets stored in our database for station/object SV6LWW-11. If no packets are shown the sender has not sent any weather packets the latest 10 day(s).
| Time | Temp. | Humidity | Pressure | Rain* | Wind** | Luminosity | Snow |
|---|---|---|---|---|---|---|---|
| 1778240621 | 20° C | 72% | 1022.9 hPa | - | - | - | - |
| 1778239721 | 20° C | 73% | 1023.2 hPa | - | - | - | - |
| 1778238821 | 20° C | 73% | 1023.5 hPa | - | - | - | - |
| 1778237921 | 20° C | 74% | 1023.7 hPa | - | - | - | - |
| 1778237021 | 20° C | 74% | 1023.9 hPa | - | - | - | - |
| 1778236120 | 20° C | 74% | 1023.8 hPa | - | - | - | - |
| 1778235220 | 20° C | 70% | 1023.8 hPa | - | - | - | - |
| 1778234320 | 20° C | 67% | 1024 hPa | - | - | - | - |
| 1778233419 | 19.44° C | 64% | 1024.2 hPa | - | - | - | - |
| 1778183542 | 20° C | 49% | 1026.1 hPa | - | - | - | - |
| 1778182642 | 20° C | 49% | 1026.1 hPa | - | - | - | - |
| 1778181742 | 20° C | 48% | 1026 hPa | - | - | - | - |
| 1778180842 | 20° C | 48% | 1025.9 hPa | - | - | - | - |
| 1778179942 | 20° C | 48% | 1025.7 hPa | - | - | - | - |
| 1778179042 | 20° C | 45% | 1025.4 hPa | - | - | - | - |
| 1778178141 | 20° C | 45% | 1025.4 hPa | - | - | - | - |
| 1778177240 | 20° C | 44% | 1025.2 hPa | - | - | - | - |
| 1778176340 | 20° C | 42% | 1024.9 hPa | - | - | - | - |
| 1778175440 | 20° C | 42% | 1024.7 hPa | - | - | - | - |
| 1778174540 | 20° C | 41% | 1024.6 hPa | - | - | - | - |
| 1778173639 | 20° C | 41% | 1024.4 hPa | - | - | - | - |
| 1778172739 | 20° C | 41% | 1024.3 hPa | - | - | - | - |
| 1778171842 | 20° C | 41% | 1024.4 hPa | - | - | - | - |
| 1778170942 | 20° C | 40% | 1024.3 hPa | - | - | - | - |
| 1778170042 | 20° C | 40% | 1024.4 hPa | - | - | - | - |
* Rain since midnight (hover to see other rain measurements)
** Current wind speed in m/s (hover to see current wind gust speed)